sensor_id;sensor_type;location;lat;lon;timestamp;temperature;humidity
53643;DHT22;39546;45.534;12.048;2023-07-13T00:01:28;29.10;73.90
53643;DHT22;39546;45.534;12.048;2023-07-13T00:07:31;28.80;76.50
53643;DHT22;39546;45.534;12.048;2023-07-13T00:13:33;28.60;78.60
53643;DHT22;39546;45.534;12.048;2023-07-13T00:19:35;28.60;79.30
53643;DHT22;39546;45.534;12.048;2023-07-13T00:25:37;28.50;79.30
53643;DHT22;39546;45.534;12.048;2023-07-13T00:31:39;28.20;79.00
53643;DHT22;39546;45.534;12.048;2023-07-13T00:37:42;28.00;80.70
53643;DHT22;39546;45.534;12.048;2023-07-13T00:43:44;27.90;81.40
53643;DHT22;39546;45.534;12.048;2023-07-13T00:49:46;27.90;81.50
53643;DHT22;39546;45.534;12.048;2023-07-13T00:55:50;27.60;76.70
53643;DHT22;39546;45.534;12.048;2023-07-13T01:01:53;27.30;78.70
53643;DHT22;39546;45.534;12.048;2023-07-13T01:08:26;27.30;80.80
53643;DHT22;39546;45.534;12.048;2023-07-13T01:14:29;27.30;81.20
53643;DHT22;39546;45.534;12.048;2023-07-13T01:20:31;27.20;80.30
53643;DHT22;39546;45.534;12.048;2023-07-13T01:26:38;27.00;81.60
53643;DHT22;39546;45.534;12.048;2023-07-13T01:32:42;27.00;81.90
53643;DHT22;39546;45.534;12.048;2023-07-13T01:38:44;27.30;81.40
53643;DHT22;39546;45.534;12.048;2023-07-13T01:44:46;27.30;81.30
53643;DHT22;39546;45.534;12.048;2023-07-13T01:50:48;27.40;81.30
53643;DHT22;39546;45.534;12.048;2023-07-13T01:56:51;27.60;81.20
53643;DHT22;39546;45.534;12.048;2023-07-13T02:02:53;27.60;81.40
53643;DHT22;39546;45.534;12.048;2023-07-13T02:08:55;27.60;81.00
53643;DHT22;39546;45.534;12.048;2023-07-13T02:14:57;27.60;81.30
53643;DHT22;39546;45.534;12.048;2023-07-13T02:20:59;27.40;81.10
53643;DHT22;39546;45.534;12.048;2023-07-13T02:27:01;27.50;81.20
53643;DHT22;39546;45.534;12.048;2023-07-13T02:33:03;27.30;81.60
53643;DHT22;39546;45.534;12.048;2023-07-13T02:39:06;27.30;82.60
53643;DHT22;39546;45.534;12.048;2023-07-13T02:45:10;27.30;82.40
53643;DHT22;39546;45.534;12.048;2023-07-13T02:51:14;27.40;82.30
53643;DHT22;39546;45.534;12.048;2023-07-13T02:57:16;27.40;81.90
53643;DHT22;39546;45.534;12.048;2023-07-13T03:03:18;27.60;81.90
53643;DHT22;39546;45.534;12.048;2023-07-13T03:09:20;27.50;81.80
53643;DHT22;39546;45.534;12.048;2023-07-13T03:15:23;27.40;81.70
53643;DHT22;39546;45.534;12.048;2023-07-13T03:21:26;27.20;82.10
53643;DHT22;39546;45.534;12.048;2023-07-13T03:27:28;27.00;82.40
53643;DHT22;39546;45.534;12.048;2023-07-13T03:33:31;26.90;82.50
53643;DHT22;39546;45.534;12.048;2023-07-13T03:39:33;27.10;82.00
53643;DHT22;39546;45.534;12.048;2023-07-13T03:45:38;27.10;82.00
53643;DHT22;39546;45.534;12.048;2023-07-13T03:51:40;26.80;82.30
53643;DHT22;39546;45.534;12.048;2023-07-13T03:57:42;26.80;82.30
53643;DHT22;39546;45.534;12.048;2023-07-13T04:03:45;26.80;82.10
53643;DHT22;39546;45.534;12.048;2023-07-13T04:09:48;26.80;82.10
53643;DHT22;39546;45.534;12.048;2023-07-13T04:15:51;26.70;82.30
53643;DHT22;39546;45.534;12.048;2023-07-13T04:21:53;26.80;82.10
53643;DHT22;39546;45.534;12.048;2023-07-13T04:27:55;26.80;81.80
53643;DHT22;39546;45.534;12.048;2023-07-13T04:33:57;26.90;82.20
53643;DHT22;39546;45.534;12.048;2023-07-13T04:40:00;27.00;82.20
53643;DHT22;39546;45.534;12.048;2023-07-13T04:46:10;27.00;81.80
53643;DHT22;39546;45.534;12.048;2023-07-13T04:52:13;27.10;81.80
53643;DHT22;39546;45.534;12.048;2023-07-13T04:58:15;27.00;82.20
53643;DHT22;39546;45.534;12.048;2023-07-13T05:04:18;27.00;82.40
53643;DHT22;39546;45.534;12.048;2023-07-13T05:10:20;26.90;82.50
53643;DHT22;39546;45.534;12.048;2023-07-13T05:16:22;26.90;82.60
53643;DHT22;39546;45.534;12.048;2023-07-13T05:22:25;27.00;82.50
53643;DHT22;39546;45.534;12.048;2023-07-13T05:28:27;27.00;82.40
53643;DHT22;39546;45.534;12.048;2023-07-13T05:34:29;26.90;82.70
53643;DHT22;39546;45.534;12.048;2023-07-13T05:40:32;26.90;82.90
53643;DHT22;39546;45.534;12.048;2023-07-13T05:46:34;27.00;83.10
53643;DHT22;39546;45.534;12.048;2023-07-13T05:52:36;27.10;83.10
53643;DHT22;39546;45.534;12.048;2023-07-13T05:58:39;27.20;83.20
53643;DHT22;39546;45.534;12.048;2023-07-13T06:04:41;27.20;83.40
53643;DHT22;39546;45.534;12.048;2023-07-13T06:10:43;27.10;83.30
53643;DHT22;39546;45.534;12.048;2023-07-13T06:16:45;27.30;83.20
53643;DHT22;39546;45.534;12.048;2023-07-13T06:22:47;27.30;82.90
53643;DHT22;39546;45.534;12.048;2023-07-13T06:28:49;27.40;82.90
53643;DHT22;39546;45.534;12.048;2023-07-13T06:34:51;27.60;83.10
53643;DHT22;39546;45.534;12.048;2023-07-13T06:40:53;27.60;83.00
53643;DHT22;39546;45.534;12.048;2023-07-13T06:46:55;27.70;83.40
53643;DHT22;39546;45.534;12.048;2023-07-13T06:52:57;27.80;83.40
53643;DHT22;39546;45.534;12.048;2023-07-13T06:59:01;27.90;83.40
53643;DHT22;39546;45.534;12.048;2023-07-13T07:05:03;27.90;83.20
53643;DHT22;39546;45.534;12.048;2023-07-13T07:11:08;27.80;83.20
53643;DHT22;39546;45.534;12.048;2023-07-13T07:17:10;27.80;83.70
53643;DHT22;39546;45.534;12.048;2023-07-13T07:23:12;27.80;84.10
53643;DHT22;39546;45.534;12.048;2023-07-13T07:29:16;27.70;84.30
53643;DHT22;39546;45.534;12.048;2023-07-13T07:35:18;27.70;84.30
53643;DHT22;39546;45.534;12.048;2023-07-13T07:41:20;27.60;84.00
53643;DHT22;39546;45.534;12.048;2023-07-13T07:47:23;27.60;84.10
53643;DHT22;39546;45.534;12.048;2023-07-13T07:53:25;27.70;84.10
53643;DHT22;39546;45.534;12.048;2023-07-13T07:59:28;27.80;83.60
53643;DHT22;39546;45.534;12.048;2023-07-13T08:05:30;27.70;82.50
53643;DHT22;39546;45.534;12.048;2023-07-13T08:11:32;27.60;82.50
53643;DHT22;39546;45.534;12.048;2023-07-13T08:17:34;27.50;82.40
53643;DHT22;39546;45.534;12.048;2023-07-13T08:23:37;27.50;82.20
53643;DHT22;39546;45.534;12.048;2023-07-13T08:29:39;27.60;82.10
53643;DHT22;39546;45.534;12.048;2023-07-13T08:35:41;27.60;81.90
53643;DHT22;39546;45.534;12.048;2023-07-13T08:41:53;27.40;81.20
53643;DHT22;39546;45.534;12.048;2023-07-13T08:48:10;27.30;81.20
53643;DHT22;39546;45.534;12.048;2023-07-13T08:54:31;27.40;81.20
53643;DHT22;39546;45.534;12.048;2023-07-13T09:00:52;27.40;80.90
53643;DHT22;39546;45.534;12.048;2023-07-13T09:13:39;27.50;81.00
53643;DHT22;39546;45.534;12.048;2023-07-13T09:19:49;27.30;80.80
53643;DHT22;39546;45.534;12.048;2023-07-13T09:32:13;27.30;80.60
53643;DHT22;39546;45.534;12.048;2023-07-13T09:38:19;27.30;80.80
53643;DHT22;39546;45.534;12.048;2023-07-13T09:50:45;27.40;81.40
53643;DHT22;39546;45.534;12.048;2023-07-13T09:56:47;27.40;82.10
53643;DHT22;39546;45.534;12.048;2023-07-13T10:09:22;27.30;82.10
53643;DHT22;39546;45.534;12.048;2023-07-13T10:15:25;27.40;82.40
53643;DHT22;39546;45.534;12.048;2023-07-13T10:21:50;27.40;82.20
53643;DHT22;39546;45.534;12.048;2023-07-13T10:28:03;27.50;82.10
53643;DHT22;39546;45.534;12.048;2023-07-13T10:34:09;27.50;81.60
53643;DHT22;39546;45.534;12.048;2023-07-13T10:40:20;27.50;81.70
53643;DHT22;39546;45.534;12.048;2023-07-13T10:46:27;27.80;82.40
53643;DHT22;39546;45.534;12.048;2023-07-13T10:52:45;28.10;82.00
53643;DHT22;39546;45.534;12.048;2023-07-13T10:59:11;28.50;80.10
53643;DHT22;39546;45.534;12.048;2023-07-13T11:05:28;28.90;79.00
53643;DHT22;39546;45.534;12.048;2023-07-13T11:11:34;29.30;77.00
53643;DHT22;39546;45.534;12.048;2023-07-13T11:17:53;29.70;74.70
53643;DHT22;39546;45.534;12.048;2023-07-13T11:24:17;29.90;73.90
53643;DHT22;39546;45.534;12.048;2023-07-13T11:30:32;30.30;73.90
53643;DHT22;39546;45.534;12.048;2023-07-13T11:36:39;30.70;72.90
53643;DHT22;39546;45.534;12.048;2023-07-13T11:43:17;30.90;69.30
53643;DHT22;39546;45.534;12.048;2023-07-13T11:49:23;31.20;71.00
53643;DHT22;39546;45.534;12.048;2023-07-13T11:55:25;31.60;70.80
53643;DHT22;39546;45.534;12.048;2023-07-13T12:01:30;31.90;70.30
53643;DHT22;39546;45.534;12.048;2023-07-13T12:07:35;32.00;70.10
53643;DHT22;39546;45.534;12.048;2023-07-13T12:13:39;32.10;70.00
53643;DHT22;39546;45.534;12.048;2023-07-13T12:19:42;32.10;70.40
53643;DHT22;39546;45.534;12.048;2023-07-13T12:25:44;32.00;68.40
53643;DHT22;39546;45.534;12.048;2023-07-13T12:31:48;32.10;67.50
53643;DHT22;39546;45.534;12.048;2023-07-13T12:37:51;32.10;66.30
53643;DHT22;39546;45.534;12.048;2023-07-13T12:43:56;32.20;66.80
53643;DHT22;39546;45.534;12.048;2023-07-13T12:50:00;32.20;68.70
53643;DHT22;39546;45.534;12.048;2023-07-13T12:56:18;32.40;67.50
53643;DHT22;39546;45.534;12.048;2023-07-13T13:02:32;32.60;66.40
53643;DHT22;39546;45.534;12.048;2023-07-13T13:08:36;32.60;68.10
53643;DHT22;39546;45.534;12.048;2023-07-13T13:14:38;32.40;67.60
53643;DHT22;39546;45.534;12.048;2023-07-13T13:20:41;32.60;66.10
53643;DHT22;39546;45.534;12.048;2023-07-13T13:26:44;32.80;64.70
53643;DHT22;39546;45.534;12.048;2023-07-13T13:32:48;32.80;64.10
53643;DHT22;39546;45.534;12.048;2023-07-13T13:38:50;32.80;63.80
53643;DHT22;39546;45.534;12.048;2023-07-13T13:44:52;32.60;63.60
53643;DHT22;39546;45.534;12.048;2023-07-13T13:50:54;32.50;62.80
53643;DHT22;39546;45.534;12.048;2023-07-13T13:56:57;32.40;63.20
53643;DHT22;39546;45.534;12.048;2023-07-13T14:03:00;32.50;62.80
53643;DHT22;39546;45.534;12.048;2023-07-13T14:09:07;32.30;63.90
53643;DHT22;39546;45.534;12.048;2023-07-13T14:21:22;31.80;64.70
53643;DHT22;39546;45.534;12.048;2023-07-13T14:27:24;31.80;64.40
53643;DHT22;39546;45.534;12.048;2023-07-13T14:33:27;31.70;64.40
53643;DHT22;39546;45.534;12.048;2023-07-13T14:39:29;31.70;64.50
53643;DHT22;39546;45.534;12.048;2023-07-13T14:45:31;31.60;64.80
53643;DHT22;39546;45.534;12.048;2023-07-13T14:51:34;31.60;65.10
53643;DHT22;39546;45.534;12.048;2023-07-13T14:57:36;31.50;65.20
53643;DHT22;39546;45.534;12.048;2023-07-13T15:03:43;31.40;65.70
53643;DHT22;39546;45.534;12.048;2023-07-13T15:09:49;31.40;66.20
53643;DHT22;39546;45.534;12.048;2023-07-13T15:15:53;31.30;67.00
53643;DHT22;39546;45.534;12.048;2023-07-13T15:21:56;31.30;67.60
53643;DHT22;39546;45.534;12.048;2023-07-13T15:28:00;31.20;67.90
53643;DHT22;39546;45.534;12.048;2023-07-13T15:34:09;31.10;69.20
53643;DHT22;39546;45.534;12.048;2023-07-13T15:40:13;31.10;69.20
53643;DHT22;39546;45.534;12.048;2023-07-13T15:46:17;30.80;67.60
53643;DHT22;39546;45.534;12.048;2023-07-13T15:52:23;30.60;69.10
53643;DHT22;39546;45.534;12.048;2023-07-13T15:58:25;30.30;68.40
53643;DHT22;39546;45.534;12.048;2023-07-13T16:04:28;30.10;69.50
53643;DHT22;39546;45.534;12.048;2023-07-13T16:10:32;29.90;71.00
53643;DHT22;39546;45.534;12.048;2023-07-13T16:16:35;29.60;72.80
53643;DHT22;39546;45.534;12.048;2023-07-13T16:22:38;29.40;73.40
53643;DHT22;39546;45.534;12.048;2023-07-13T16:28:41;29.40;73.00
53643;DHT22;39546;45.534;12.048;2023-07-13T16:34:45;29.40;73.30
53643;DHT22;39546;45.534;12.048;2023-07-13T16:40:47;29.70;74.00
53643;DHT22;39546;45.534;12.048;2023-07-13T16:46:52;29.80;73.70
53643;DHT22;39546;45.534;12.048;2023-07-13T16:52:57;29.70;72.00
53643;DHT22;39546;45.534;12.048;2023-07-13T16:59:00;29.60;72.70
53643;DHT22;39546;45.534;12.048;2023-07-13T17:05:03;29.60;72.60
53643;DHT22;39546;45.534;12.048;2023-07-13T17:11:27;29.40;72.30
53643;DHT22;39546;45.534;12.048;2023-07-13T17:17:34;29.30;72.20
53643;DHT22;39546;45.534;12.048;2023-07-13T17:23:44;29.40;72.20
53643;DHT22;39546;45.534;12.048;2023-07-13T17:29:46;29.50;72.80
53643;DHT22;39546;45.534;12.048;2023-07-13T17:35:51;29.60;73.10
53643;DHT22;39546;45.534;12.048;2023-07-13T17:41:53;29.60;73.30
53643;DHT22;39546;45.534;12.048;2023-07-13T17:47:57;29.70;72.90
53643;DHT22;39546;45.534;12.048;2023-07-13T17:54:01;29.60;72.10
53643;DHT22;39546;45.534;12.048;2023-07-13T18:00:03;29.90;71.50
53643;DHT22;39546;45.534;12.048;2023-07-13T18:06:28;30.70;70.30
53643;DHT22;39546;45.534;12.048;2023-07-13T18:12:33;30.80;70.10
53643;DHT22;39546;45.534;12.048;2023-07-13T18:18:36;30.30;71.50
53643;DHT22;39546;45.534;12.048;2023-07-13T18:24:39;29.90;72.90
53643;DHT22;39546;45.534;12.048;2023-07-13T18:30:42;29.70;73.70
53643;DHT22;39546;45.534;12.048;2023-07-13T18:36:45;29.40;74.30
53643;DHT22;39546;45.534;12.048;2023-07-13T18:42:48;29.20;74.50
53643;DHT22;39546;45.534;12.048;2023-07-13T18:48:52;28.90;74.60
53643;DHT22;39546;45.534;12.048;2023-07-13T18:54:54;28.80;75.20
53643;DHT22;39546;45.534;12.048;2023-07-13T19:00:57;28.70;75.60
53643;DHT22;39546;45.534;12.048;2023-07-13T19:07:04;28.60;75.80
53643;DHT22;39546;45.534;12.048;2023-07-13T19:13:09;28.50;76.00
53643;DHT22;39546;45.534;12.048;2023-07-13T19:19:14;28.40;76.20
53643;DHT22;39546;45.534;12.048;2023-07-13T19:25:17;28.30;76.30
53643;DHT22;39546;45.534;12.048;2023-07-13T19:31:29;28.20;76.60
53643;DHT22;39546;45.534;12.048;2023-07-13T19:37:35;28.10;76.50
53643;DHT22;39546;45.534;12.048;2023-07-13T19:43:38;27.90;76.70
53643;DHT22;39546;45.534;12.048;2023-07-13T19:49:40;27.80;76.90
53643;DHT22;39546;45.534;12.048;2023-07-13T19:55:43;27.80;77.00
53643;DHT22;39546;45.534;12.048;2023-07-13T20:01:45;27.80;77.10
53643;DHT22;39546;45.534;12.048;2023-07-13T20:07:54;27.80;77.20
53643;DHT22;39546;45.534;12.048;2023-07-13T20:13:57;27.90;77.60
53643;DHT22;39546;45.534;12.048;2023-07-13T20:20:00;27.80;77.70
53643;DHT22;39546;45.534;12.048;2023-07-13T20:26:03;27.70;77.80
53643;DHT22;39546;45.534;12.048;2023-07-13T20:32:08;27.80;77.70
53643;DHT22;39546;45.534;12.048;2023-07-13T20:38:14;27.80;77.70
53643;DHT22;39546;45.534;12.048;2023-07-13T20:44:17;27.80;77.80
53643;DHT22;39546;45.534;12.048;2023-07-13T20:50:26;27.80;78.00
53643;DHT22;39546;45.534;12.048;2023-07-13T20:56:29;27.70;78.90
53643;DHT22;39546;45.534;12.048;2023-07-13T21:02:32;27.60;79.20
53643;DHT22;39546;45.534;12.048;2023-07-13T21:08:35;27.60;79.10
53643;DHT22;39546;45.534;12.048;2023-07-13T21:14:37;27.50;79.20
53643;DHT22;39546;45.534;12.048;2023-07-13T21:20:40;27.50;79.60
53643;DHT22;39546;45.534;12.048;2023-07-13T21:26:44;27.40;79.40
53643;DHT22;39546;45.534;12.048;2023-07-13T21:32:49;27.40;79.40
53643;DHT22;39546;45.534;12.048;2023-07-13T21:38:59;27.30;79.70
53643;DHT22;39546;45.534;12.048;2023-07-13T21:45:01;27.30;80.30
53643;DHT22;39546;45.534;12.048;2023-07-13T21:51:29;27.30;80.40
53643;DHT22;39546;45.534;12.048;2023-07-13T21:57:32;27.40;80.00
53643;DHT22;39546;45.534;12.048;2023-07-13T22:03:36;27.30;79.90
53643;DHT22;39546;45.534;12.048;2023-07-13T22:09:38;27.20;80.00
53643;DHT22;39546;45.534;12.048;2023-07-13T22:15:40;27.00;80.30
53643;DHT22;39546;45.534;12.048;2023-07-13T22:21:43;27.00;81.00
53643;DHT22;39546;45.534;12.048;2023-07-13T22:27:46;27.00;81.50
53643;DHT22;39546;45.534;12.048;2023-07-13T22:33:52;27.00;81.50
53643;DHT22;39546;45.534;12.048;2023-07-13T22:39:54;27.00;81.60
53643;DHT22;39546;45.534;12.048;2023-07-13T22:46:14;27.00;81.70
53643;DHT22;39546;45.534;12.048;2023-07-13T22:52:18;26.80;81.90
53643;DHT22;39546;45.534;12.048;2023-07-13T22:58:37;26.80;82.20
53643;DHT22;39546;45.534;12.048;2023-07-13T23:04:41;26.60;82.40
53643;DHT22;39546;45.534;12.048;2023-07-13T23:10:45;26.60;82.70
53643;DHT22;39546;45.534;12.048;2023-07-13T23:16:57;26.60;82.50
53643;DHT22;39546;45.534;12.048;2023-07-13T23:24:04;26.50;82.80
53643;DHT22;39546;45.534;12.048;2023-07-13T23:30:07;26.50;82.80
53643;DHT22;39546;45.534;12.048;2023-07-13T23:36:15;26.60;83.00
53643;DHT22;39546;45.534;12.048;2023-07-13T23:42:18;26.60;83.20
53643;DHT22;39546;45.534;12.048;2023-07-13T23:48:20;26.60;83.50
53643;DHT22;39546;45.534;12.048;2023-07-13T23:54:24;26.50;83.60
